createdAt,value
2023-03-17T00:24:06.752Z,53.5
2023-03-17T00:54:07.138Z,53.5
2023-03-17T01:24:07.770Z,53.6
2023-03-17T01:54:08.156Z,53.7
2023-03-17T02:24:08.691Z,53.7
2023-03-17T02:54:09.109Z,53.8
2023-03-17T03:54:20.168Z,53.9
2023-03-17T04:54:31.412Z,53.9
2023-03-17T05:24:32.216Z,53.9
2023-03-17T05:54:32.638Z,53.9
2023-03-17T06:24:33.748Z,53.7
2023-03-17T06:54:34.196Z,53.7
2023-03-17T07:24:34.650Z,53.3
2023-03-17T07:54:35.108Z,53.4
2023-03-17T08:24:35.552Z,53.9
2023-03-17T08:54:36.035Z,53.6
2023-03-17T09:24:36.631Z,53.5
2023-03-17T10:24:47.899Z,53.3
2023-03-17T11:24:58.864Z,53.1
2023-03-17T11:55:00.164Z,53
2023-03-17T12:25:00.666Z,53
2023-03-17T12:55:01.701Z,52.9
2023-03-17T13:25:02.135Z,52.8
2023-03-17T13:55:02.949Z,52.7
2023-03-17T14:25:03.617Z,52.6
2023-03-17T14:55:04.151Z,52.6
2023-03-17T15:25:04.596Z,52.6
2023-03-17T15:55:06.042Z,52.6
2023-03-17T16:25:06.498Z,52.6
2023-03-17T16:55:06.922Z,52.6
2023-03-17T17:55:19.182Z,53.6
2023-03-17T18:55:30.363Z,53.9
2023-03-17T19:25:31.172Z,53.9
2023-03-17T19:55:32.117Z,53.9
2023-03-17T20:25:33.462Z,54.2
2023-03-17T20:55:33.899Z,54.1
2023-03-17T21:25:37.278Z,54.1
2023-03-17T21:55:37.674Z,54.1
2023-03-17T22:25:38.115Z,54.1
2023-03-17T22:55:38.533Z,54.1
2023-03-17T23:25:38.951Z,54.1
